Latest Coastal Weather Observations for Cairns

IDQ60701

Issued at 7:21 am EST Tuesday 26 May 2015 (issued every 10 minutes, with the page automatically refreshed every 10 minutes)

About coastal observations | Map of coastal stations | Coastal observations for QLD | Marine services | Other Formats
Station Details ID: 031011 Name: CAIRNS AERO Lat: -16.87 Lon: 145.75 Height: 2.22 m
Data from the previous 72 hours. | See also: Recent months at Cairns
Date/Time
EST
Temp

°C
Wind Pressure Rain
since 9am
mm
Weather Cloud Vis
km
Sea
Height
m
Swell
Dir
 
Speed
knots
Gust
knots
hPa Trend Height
m
Period
s
Dir
26/07:00am 21.8 S 11 17 1020.3 - 3.8 - Mostly clear 10 - - - -
26/06:30am 21.7 S 11 17 1020.2 - 3.8 - Mostly clear 10 - - - -
26/06:00am 21.0 S 9 14 1020.1 - 3.8 - Cloudy 10 - - - -
26/05:00am 21.3 S 11 17 1019.5 - 3.6 - Mostly clear 10 - - - -
26/04:30am 21.3 S 9 14 1019.5 - 3.6 - Mostly clear 10 - - - -
26/04:00am 21.5 S 11 16 1019.5 - 3.6 - Mostly clear 10 - - - -
26/03:30am 21.8 S 11 16 1019.7 - 3.6 - Mostly clear 10 - - - -
26/03:00am 21.4 SSE 9 12 1020.0 - 3.4 - Cloudy 10 - - - -
26/02:30am 21.9 S 9 16 1020.1 - 3.0 - Mostly clear 10 - - - -
26/02:00am 22.3 S 9 13 1020.4 - 3.0 - Mostly clear 10 - - - -
26/01:30am 22.1 SSE 8 13 1020.7 - 3.0 Showers Mostly clear 10 - - - -
26/01:00am 22.1 S 9 14 1020.7 - 3.0 - Mostly clear 10 - - - -
26/12:30am 22.4 S 10 16 1020.8 - 3.0 - Mostly clear 10 - - - -
 
Date/Time
EST
Temp

°C
Wind Pressure Rain
since 9am
mm
Weather Cloud Vis
km
Sea
Height
m
Swell
Dir
 
Speed
knots
Gust
knots
hPa Trend Height
m
Period
s
Dir
25/11:30pm 22.5 S 11 17 1021.0 - 3.0 - Mostly clear 10 - - - -
25/11:00pm 22.1 S 10 15 1021.3 - 3.0 - Mostly clear 10 - - - -
25/10:30pm 22.2 S 9 14 1021.5 - 2.8 - Mostly clear 10 - - - -
25/10:00pm 21.8 SSE 9 14 1021.5 - 2.8 Showers Mostly clear 10 - - - -
25/09:30pm 21.7 SSE 9 13 1021.4 - 2.6 - Mostly clear 10 - - - -
25/09:00pm 22.1 S 9 15 1021.0 - 2.6 - Cloudy 10 - - - -
25/08:30pm 21.8 SSE 8 12 1021.0 - 2.6 Showers Mostly clear 10 - - - -
25/08:00pm 21.8 S 9 14 1020.6 - 2.6 - Mostly clear 10 - - - -
25/07:30pm 21.5 S 10 17 1020.4 - 2.6 - Mostly clear 10 - - - -
25/07:00pm 21.5 SSE 7 9 1020.2 - 2.2 - Mostly clear 10 - - - -
25/06:47pm 21.6 SSE 10 14 1020.2 - 2.2 Showers Mostly clear 10 - - - -
25/06:30pm 22.1 S 10 17 1019.9 - 2.0 Showers Mostly clear 6 - - - -
25/06:00pm 22.4 SSE 10 15 1019.5 - 1.8 - Mostly cloudy 10 - - - -
25/05:30pm 23.6 SSE 11 17 1019.4 - 1.8 - Mostly clear 10 - - - -
25/05:00pm 24.3 SSE 13 18 1019.3 - 1.8 - Mostly clear 10 - - - -
25/04:30pm 24.3 S 11 15 1019.1 - 1.8 - Mostly clear 10 - - - -
25/04:00pm 24.1 SE 17 19 1019.0 - 1.8 - Partly cloudy 10 - - - -
25/03:30pm 24.7 SSE 13 17 1019.1 - 1.8 Showers Partly cloudy 10 - - - -
25/03:00pm 25.1 SSE 12 16 1019.1 F 1.8 Distant precip. Mostly cloudy 20 - - - -
25/02:30pm 24.2 S 12 18 1019.3 - 1.8 - Partly cloudy 10 - - - -
25/02:00pm 23.1 S 8 13 1019.5 - 1.8 - Mostly clear 10 - - - -
25/01:40pm 23.1 SSE 12 19 1020.0 - 1.8 Showers Mostly clear 10 - - - -
25/01:30pm 23.1 SE 15 19 1020.1 - 1.8 Showers Mostly clear 6 - - - -
25/01:22pm 23.4 SE 16 21 1020.2 - 1.8 Showers Mostly clear 6 - - - -
25/01:00pm 23.0 SE 14 17 1020.6 - 1.8 Showers Mostly clear 10 - - - -
25/12:30pm 23.1 SE 14 20 1021.0 - 1.8 Showers Mostly clear 9 - - - -
25/12:00pm 23.3 SSE 15 20 1021.3 - 1.8 - Cloudy 10 - - - -
25/11:54am 23.2 SSE 15 20 1021.4 - 1.8 - Mostly clear 10 - - - -
25/11:30am 23.9 SE 15 18 1021.8 - 1.6 Showers Mostly clear 4 - - - -
25/11:00am 24.3 SSE 12 17 1021.9 - 1.6 - Mostly clear 10 - - - -
25/10:30am 22.5 SSE 16 20 1022.2 - 1.6 Showers Mostly clear 10 - - - -
25/10:27am 22.5 SSE 15 20 1022.2 - 1.6 Showers Mostly clear 10 - - - -
25/10:00am 22.1 SE 17 24 1022.2 - 1.0 Showers Mostly clear 4 - - - -
25/09:56am 22.3 SSE 14 24 1022.2 - 0.2 Showers Mostly clear 2 - - - -
25/09:50am 23.4 SSE 14 18 1022.2 - 0.0 Showers Mostly clear 4 - - - -
25/09:39am 22.9 SSE 16 26 1022.1 - 0.0 - Mostly clear 10 - - - -
25/09:30am 22.7 SSE 21 28 1022.0 - 0.0 Showers Mostly clear 10 - - - -
25/09:20am 24.0 SSE 17 23 1021.8 - 0.0 Showers Mostly clear 4 - - - -
25/09:00am 24.2 SSE 13 18 1021.7 R 1.2 Distant precip. Mostly cloudy 20 - - - -
25/08:30am 23.3 SSE 13 17 1021.6 - 1.2 Showers Mostly clear 10 - - - -
25/08:00am 22.4 SSE 12 18 1021.2 - 1.2 - Mostly clear 10 - - - -
25/07:54am 22.5 SSE 12 18 1021.2 - 1.2 Showers Mostly clear 6 - - - -
25/07:30am 22.9 S 11 17 1020.8 - 1.2 Showers Mostly clear 10 - - - -
25/07:00am 22.8 S 10 16 1020.6 - 1.0 - Mostly clear 10 - - - -
25/06:30am 22.9 S 9 15 1020.1 - 1.0 - Partly cloudy 10 - - - -
25/06:00am 22.8 SSE 11 17 1019.6 - 1.0 - Cloudy 10 - - - -
25/05:30am 22.5 SSE 10 16 1019.4 - 1.0 - Mostly clear 10 - - - -
25/05:00am 22.8 S 9 14 1019.2 - 1.0 - Mostly clear 10 - - - -
25/04:30am 22.6 SSE 9 14 1019.3 - 1.0 - Mostly clear 10 - - - -
25/04:00am 22.5 SSE 8 12 1019.1 - 1.0 - Mostly clear 10 - - - -
25/03:30am 22.4 S 13 18 1019.0 - 1.0 Showers Mostly clear 10 - - - -
25/03:00am 22.6 S 7 12 1019.0 - 0.8 - Cloudy 10 - - - -
25/02:30am 22.4 SSE 10 14 1019.4 - 0.6 Showers Mostly clear 10 - - - -
25/02:00am 22.3 S 9 15 1019.6 - 0.6 - Mostly clear 10 - - - -
25/01:30am 21.9 S 10 14 1019.9 - 0.2 Showers Mostly clear 10 - - - -
25/01:00am 22.7 S 11 16 1019.8 - 0.0 - Mostly clear 10 - - - -
25/12:30am 23.0 S 11 17 1019.9 - 0.0 - Mostly clear 10 - - - -
25/12:00am 23.3 S 11 15 1020.0 - 0.0 - Cloudy 10 - - - -
 
Date/Time
EST
Temp

°C
Wind Pressure Rain
since 9am
mm
Weather Cloud Vis
km
Sea
Height
m
Swell
Dir
 
Speed
knots
Gust
knots
hPa Trend Height
m
Period
s
Dir
24/11:30pm 22.9 S 13 18 1020.0 - 0.0 - Mostly clear 10 - - - -
24/11:00pm 23.2 S 11 16 1020.1 - 0.0 - Mostly clear 10 - - - -
24/10:30pm 23.3 S 9 14 1020.2 - 0.0 - Mostly clear 10 - - - -
24/10:00pm 23.2 S 9 14 1020.1 - 0.0 - Mostly clear 10 - - - -
24/09:30pm 23.0 S 9 13 1020.3 - 0.0 - Mostly clear 10 - - - -
24/09:00pm 23.1 S 9 13 1020.0 - 0.0 - Mostly clear 10 - - - -
24/08:30pm 23.4 SSE 11 16 1020.0 - 0.0 - Mostly clear 10 - - - -
24/08:00pm 23.6 SSE 11 18 1019.8 - 0.0 - Mostly clear 10 - - - -
24/07:30pm 23.8 SSE 11 16 1019.6 - 0.0 - Mostly clear 10 - - - -
24/07:00pm 24.3 SSE 13 18 1019.2 - 0.0 - Mostly clear 10 - - - -
24/06:30pm 24.3 SSE 8 12 1019.0 - 0.0 - Mostly clear 10 - - - -
24/06:00pm 24.2 SSE 10 14 1018.6 - 0.0 - Mostly clear 10 - - - -
24/05:30pm 24.9 SE 15 18 1018.5 - 0.0 - Mostly clear 10 - - - -
24/05:00pm 26.0 SE 15 19 1018.2 - 0.0 - Mostly clear 10 - - - -
24/04:30pm 26.1 SE 16 21 1018.0 - 0.0 - Mostly clear 10 - - - -
24/04:00pm 26.8 SE 17 22 1017.7 - 0.0 - Mostly clear 10 - - - -
24/03:30pm 27.6 SE 17 22 1017.5 - 0.0 - Mostly clear 10 - - - -
24/03:00pm 27.4 SE 17 22 1017.1 R 0.0 Fine Mostly clear 30 - - - -
24/02:30pm 27.0 SE 16 21 1017.3 - 0.0 - Mostly clear 10 - - - -
24/02:00pm 27.2 SE 19 24 1017.3 - 0.0 - Mostly clear 10 - - - -
24/01:30pm 27.3 SE 17 22 1017.6 - 0.0 - Mostly clear 10 - - - -
24/01:00pm 27.4 SE 18 21 1018.0 - 0.0 - Mostly clear 10 - - - -
24/12:30pm 27.0 SE 18 22 1018.4 - 0.0 - Mostly clear 10 - - - -
24/12:00pm 27.3 SE 19 26 1018.8 - 0.0 - Partly cloudy 10 - - - -
24/11:30am 26.7 SE 17 21 1019.2 - 0.0 - Mostly clear 10 - - - -
24/11:00am 26.5 SE 17 22 1019.5 - 0.0 - Mostly clear 10 - - - -
24/10:30am 26.9 SSE 13 19 1019.8 - 0.0 - Mostly clear 10 - - - -
24/10:00am 25.0 SSE 13 17 1020.2 - 0.0 - Mostly clear 10 - - - -
24/09:30am 24.7 SSE 13 16 1020.3 - 0.0 - Mostly clear 10 - - - -
24/09:00am 23.8 S 12 18 1020.1 R 0.0 Fine Mostly clear 30 - - - -
24/08:30am 23.1 S 11 18 1019.7 - 0.0 - Mostly clear 10 - - - -
24/08:00am 22.4 S 11 18 1019.3 - 0.0 - Mostly clear 10 - - - -
24/07:30am 21.7 S 10 16 1019.0 - 0.0 - Mostly clear 10 - - - -
24/07:00am 20.6 S 8 15 1018.9 - 0.0 - Mostly clear 10 - - - -
24/06:30am 19.8 S 9 14 1018.6 - 0.0 - Mostly clear 10 - - - -
24/06:00am 20.1 S 9 14 1018.4 - 0.0 - Mostly clear 10 - - - -
24/05:30am 17.5 SE 9 15 1018.3 - 0.0 - Mostly clear 10 - - - -
24/05:00am 18.7 SSE 9 14 1018.1 - 0.0 - Mostly clear 10 - - - -
24/04:30am 20.2 S 9 15 1018.1 - 0.0 - Mostly clear 10 - - - -
24/04:00am 17.6 SE 9 12 1018.0 - 0.0 - Mostly clear 10 - - - -
24/03:30am 17.0 SE 9 12 1018.1 - 0.0 - Mostly clear 10 - - - -
24/03:00am 17.6 SE 9 13 1018.0 - 0.0 - Mostly clear 10 - - - -
24/02:30am 17.8 ESE 9 12 1018.2 - 0.0 - Mostly clear 10 - - - -
24/02:00am 18.0 ESE 10 12 1018.3 - 0.0 - Mostly clear 10 - - - -
24/01:30am 17.5 SE 9 10 1018.4 - 0.0 - Mostly clear 10 - - - -
24/01:00am 17.7 SE 8 10 1018.7 - 0.0 - Mostly clear 10 - - - -
24/12:30am 19.9 S 9 14 1018.8 - 0.0 - Mostly clear 10 - - - -
24/12:00am 19.7 SSE 7 11 1018.9 - 0.0 - Mostly clear 10 - - - -
 
Date/Time
EST
Temp

°C
Wind Pressure Rain
since 9am
mm
Weather Cloud Vis
km
Sea
Height
m
Swell
Dir
 
Speed
knots
Gust
knots
hPa Trend Height
m
Period
s
Dir
23/11:30pm 18.4 SE 8 9 1019.3 - 0.0 - Mostly clear 10 - - - -
23/11:00pm 19.8 SSE 7 11 1019.4 - 0.0 - Mostly clear 10 - - - -
23/10:30pm 19.1 SE 7 10 1019.6 - 0.0 - Mostly clear 10 - - - -
23/10:00pm 20.2 SSE 8 10 1019.6 - 0.0 - Mostly clear 10 - - - -
23/09:30pm 20.5 SSE 7 12 1019.6 - 0.0 - Mostly clear 10 - - - -
23/09:00pm 20.9 SSE 9 13 1019.6 - 0.0 - Mostly cloudy 10 - - - -
23/08:30pm 21.2 S 9 14 1019.6 - 0.0 - Mostly clear 10 - - - -
23/08:00pm 21.2 S 11 16 1019.3 - 0.0 - Mostly clear 10 - - - -
23/07:30pm 21.4 S 10 16 1019.0 - 0.0 - Mostly clear 10 - - - -
23/07:00pm 21.2 S 9 15 1018.7 - 0.0 - Mostly clear 10 - - - -
23/06:30pm 21.4 S 9 14 1018.5 - 0.0 - Mostly clear 10 - - - -
23/06:00pm 22.0 SSE 12 19 1018.0 - 0.0 - Mostly clear 10 - - - -
23/05:30pm 22.5 SSE 15 20 1017.8 - 0.0 - Mostly clear 10 - - - -
23/05:00pm 23.0 SSE 17 24 1017.4 - 0.0 - Partly cloudy 10 - - - -
23/04:30pm 23.9 SSE 15 20 1017.0 - 0.0 - Mostly clear 10 - - - -
23/04:00pm 24.3 SE 19 23 1016.6 - 0.0 - Mostly clear 10 - - - -
23/03:30pm 25.1 SE 18 21 1016.5 - 0.0 - Mostly clear 10 - - - -
23/03:00pm 25.4 SE 17 21 1016.2 R 0.0 Fine Mostly clear 30 - - - -
23/02:30pm 25.7 SE 17 23 1016.4 - 0.0 - Partly cloudy 10 - - - -
23/02:00pm 26.0 SE 18 23 1016.5 - 0.0 - Mostly clear 10 - - - -
23/01:30pm 26.1 SE 19 24 1016.7 - 0.0 - Mostly clear 10 - - - -
23/01:00pm 26.2 SE 19 25 1017.1 - 0.0 - Mostly clear 10 - - - -
23/12:30pm 25.9 SE 21 26 1017.5 - 0.0 - Mostly clear 10 - - - -
23/12:00pm 26.5 SE 18 25 1017.7 - 0.0 - Mostly clear 10 - - - -
23/11:30am 24.7 SE 19 26 1018.2 - 0.0 - Partly cloudy 10 - - - -
23/11:00am 24.9 SE 17 21 1018.6 - 0.0 - Partly cloudy 10 - - - -
23/10:30am 25.7 SSE 15 20 1018.8 - 0.0 - Mostly clear 10 - - - -
23/10:00am 25.7 SSE 17 21 1018.9 - 0.0 - Mostly clear 10 - - - -
23/09:44am 25.0 SSE 15 26 1018.9 - 0.0 - Mostly clear 10 - - - -
23/09:30am 24.8 SSE 15 21 1018.9 - 0.0 - Mostly clear 10 - - - -
23/09:00am 24.2 SSE 15 21 1018.5 R 0.0 Fine Mostly clear 30 - - - -
23/08:30am 23.3 S 14 20 1018.4 - 0.0 - Mostly clear 10 - - - -
23/08:00am 22.6 S 11 16 1018.2 - 0.0 - Mostly clear 10 - - - -
23/07:30am 22.1 S 11 18 1017.8 - 0.0 - Mostly clear 10 - - - -

Other Formats:

Comma delimited format used in spreadsheet applications
http://www.bom.gov.au/fwo/IDQ60701/IDQ60701.94287.axf

JavaScript Object Notation format (JSON) in row-major order
http://www.bom.gov.au/fwo/IDQ60701/IDQ60701.94287.json